This is the latest recevied weather packets stored in our database for station/object KF7IOR. If no packets are shown the sender has not sent any weather packets the latest 10 day(s).
| Time | Temp. | Humidity | Pressure | Rain* | Wind** | Luminosity | Snow |
|---|---|---|---|---|---|---|---|
| 1778010635 | 17.22° C | 70% | 1016.2 hPa | 0 mm | - | 429 W/m² | - |
| 1778009135 | 16.11° C | 71% | 1016.3 hPa | 0 mm | - | 302 W/m² | - |
| 1778008555 | 16.11° C | 73% | 1016.3 hPa | 0 mm | - | 364 W/m² | - |
| 1778005841 | 15° C | 80% | 1016.3 hPa | 0 mm | - | 197 W/m² | - |
| 1778004054 | 14.44° C | 78% | 1016.2 hPa | 0 mm | - | 127 W/m² | - |
| 1778003734 | 14.44° C | 79% | 1016.2 hPa | 0 mm | - | 113 W/m² | - |
| 1778003434 | 14.44° C | 79% | 1016.2 hPa | 0 mm | - | 100 W/m² | - |
| 1778001635 | 13.89° C | 81% | 1016.1 hPa | 0 mm | - | 86 W/m² | - |
| 1778001345 | 13.89° C | 81% | 1016.1 hPa | 0 mm | - | 83 W/m² | - |
| 1777998936 | 13.33° C | 85% | 1015.9 hPa | 0 mm | - | 142 W/m² | - |
| 1777998638 | 13.33° C | 86% | 1016 hPa | 0 mm | - | 158 W/m² | - |
| 1777995639 | 12.78° C | 86% | 1015.8 hPa | 0 mm | - | 70 W/m² | - |
| 1777992636 | 12.78° C | 83% | 1015.5 hPa | 0 mm | - | 30 W/m² | - |
| 1777992349 | 12.78° C | 83% | 1015.5 hPa | 0 mm | - | 28 W/m² | - |
| 1777991447 | 12.78° C | 83% | 1015.4 hPa | 0 mm | - | 26 W/m² | - |
| 1777990544 | 12.22° C | 84% | 1015.2 hPa | 0 mm | - | 23 W/m² | - |
| 1777988135 | 12.22° C | 82% | 1014.9 hPa | 0 mm | - | 9 W/m² | - |
| 1777986635 | 12.78° C | 81% | 1014.9 hPa | 0 mm | - | 0 W/m² | - |
| 1777984536 | 12.78° C | 81% | 1014.7 hPa | 0 mm | - | 0 W/m² | - |
| 1777980936 | 12.78° C | 80% | 1014.6 hPa | 0 mm | - | 0 W/m² | - |
| 1777977045 | 12.78° C | 79% | 1014.2 hPa | 0 mm | - | 0 W/m² | - |
| 1777976436 | 13.33° C | 79% | 1014.1 hPa | 0 mm | - | 0 W/m² | - |
| 1777976148 | 13.33° C | 79% | 1014.1 hPa | 0 mm | - | 0 W/m² | - |
| 1777974639 | 13.33° C | 81% | 1014.2 hPa | 0 mm | - | 0 W/m² | - |
| 1777969239 | 13.33° C | 81% | 1013.6 hPa | 0 mm | - | 0 W/m² | - |
* Rain latest hour (hover to see other rain measurements)
** Current wind speed in m/s (hover to see current wind gust speed)